Time;durP1;ratioP1;P1;durP2;ratioP2;P2;SDS_P1;SDS_P2;PMS_P1;PMS_P2;Temp;Humidity;BMP_temperature;BMP_pressure;BME280_temperature;BME280_humidity;BME280_pressure;Samples;Min_cycle;Max_cycle;Signal;HPM_P1;HPM_P2
2023/09/04 00:02:03;;;;;;;4.80;3.60;;;;;;;17.92;100.00;155967.78;4971026;28;21069;-82
2023/09/04 00:04:30;;;;;;;3.60;3.30;;;;;;;17.96;100.00;155978.19;4985077;28;20800;-82
2023/09/04 00:06:57;;;;;;;3.80;3.50;;;;;;;17.91;100.00;155963.88;4999403;28;20478;-82
2023/09/04 00:09:24;;;;;;;3.63;3.30;;;;;;;17.81;100.00;155937.84;4990842;28;20451;-82
2023/09/04 00:11:51;;;;;;;4.13;3.73;;;;;;;17.77;100.00;155928.69;4989047;28;20533;-82
2023/09/04 00:14:17;;;;;;;4.10;3.70;;;;;;;17.72;100.00;155915.69;4988650;28;20465;-82
2023/09/04 00:16:44;;;;;;;4.37;3.97;;;;;;;17.68;100.00;155905.28;4999097;28;20544;-82
2023/09/04 00:19:10;;;;;;;4.00;3.60;;;;;;;17.59;100.00;155881.84;4971709;28;20477;-82
2023/09/04 00:21:37;;;;;;;4.77;3.73;;;;;;;17.66;100.00;155898.78;5004966;28;20534;-82
2023/09/04 00:24:05;;;;;;;3.70;3.33;;;;;;;17.72;100.00;155915.69;4981702;28;20456;-81
2023/09/04 00:26:32;;;;;;;4.70;4.30;;;;;;;17.69;100.00;155907.88;4990562;28;20456;-82
2023/09/04 00:28:58;;;;;;;4.60;4.10;;;;;;;17.67;100.00;155902.69;5008377;28;20443;-82
2023/09/04 00:31:25;;;;;;;4.67;4.13;;;;;;;17.74;100.00;155920.88;4991114;28;20444;-82
2023/09/04 00:33:52;;;;;;;4.73;4.33;;;;;;;17.73;100.00;155918.31;4992041;28;20552;-82
2023/09/04 00:36:19;;;;;;;6.63;4.00;;;;;;;17.74;100.00;155920.88;4971216;28;20881;-82
2023/09/04 00:38:45;;;;;;;4.87;4.47;;;;;;;17.69;100.00;155907.88;4954100;28;20529;-82
2023/09/04 00:41:15;;;;;;;4.83;4.00;;;;;;;17.66;100.00;155900.06;4968827;28;21184;-83
2023/09/04 00:43:42;;;;;;;4.40;4.00;;;;;;;17.64;100.00;155894.84;4979618;28;21041;-82
2023/09/04 00:46:08;;;;;;;4.50;4.10;;;;;;;17.61;100.00;155887.03;4974315;28;20480;-82
2023/09/04 00:48:35;;;;;;;4.10;3.70;;;;;;;17.63;100.00;155892.28;4974658;28;20803;-82
2023/09/04 00:51:02;;;;;;;4.93;3.90;;;;;;;17.59;100.00;155881.84;4969911;28;20449;-82
2023/09/04 00:53:29;;;;;;;4.17;3.77;;;;;;;17.57;100.00;155876.66;4971096;28;20450;-82
2023/09/04 00:55:57;;;;;;;5.83;3.83;;;;;;;17.56;100.00;155874.03;4999428;28;20445;-82
2023/09/04 00:58:24;;;;;;;4.10;3.70;;;;;;;17.53;100.00;155866.22;4993714;28;20442;-82
2023/09/04 01:00:51;;;;;;;4.30;3.70;;;;;;;17.53;100.00;155866.22;5002204;28;20456;-82
2023/09/04 01:03:18;;;;;;;4.63;4.13;;;;;;;17.59;100.00;155881.84;4993950;28;20437;-82
2023/09/04 01:05:45;;;;;;;4.03;3.63;;;;;;;17.59;100.00;155881.84;4993374;28;20480;-82
2023/09/04 01:08:12;;;;;;;4.27;3.87;;;;;;;17.68;99.92;155903.97;4976039;28;20447;-82
2023/09/04 01:10:58;;;;;;;4.10;3.70;;;;;;;17.68;99.87;155905.28;4981663;28;20538;-82
2023/09/04 01:13:30;;;;;;;4.53;4.13;;;;;;;17.72;99.05;155915.69;4993277;28;20523;-82
2023/09/04 01:15:57;;;;;;;4.50;4.10;;;;;;;17.70;98.99;155909.19;4993568;28;20433;-82
2023/09/04 01:18:24;;;;;;;4.40;4.03;;;;;;;17.66;99.71;155898.78;4981922;28;20450;-82
2023/09/04 01:21:01;;;;;;;4.93;4.13;;;;;;;17.61;99.91;155887.03;4993312;28;20448;-82
2023/09/04 01:23:28;;;;;;;4.63;4.00;;;;;;;17.57;100.00;155876.66;5010863;28;20435;-82
2023/09/04 01:26:00;;;;;;;4.63;4.20;;;;;;;17.53;100.00;155866.22;4972552;28;20481;-82
2023/09/04 01:28:33;;;;;;;4.33;3.93;;;;;;;17.58;100.00;155879.22;4993805;28;20441;-82
2023/09/04 01:31:03;;;;;;;5.23;4.73;;;;;;;17.51;100.00;155862.28;4993039;28;21043;-82
2023/09/04 01:33:33;;;;;;;4.40;4.00;;;;;;;17.42;100.00;155837.56;4992915;28;20445;-82
2023/09/04 01:36:05;;;;;;;5.10;4.47;;;;;;;17.38;100.00;155827.13;4987739;28;20584;-82
2023/09/04 01:38:33;;;;;;;4.70;4.13;;;;;;;17.42;100.00;155837.56;4955448;28;20442;-81
2023/09/04 01:40:59;;;;;;;5.40;4.63;;;;;;;17.34;100.00;155816.72;4956645;28;20481;-82
2023/09/04 01:43:26;;;;;;;4.90;4.27;;;;;;;17.35;100.00;155819.31;4971656;28;20458;-82
2023/09/04 01:45:52;;;;;;;5.93;4.20;;;;;;;17.31;100.00;155808.91;4970927;28;21008;-82
2023/09/04 01:48:19;;;;;;;3.97;3.57;;;;;;;17.30;100.00;155806.28;4992567;28;20441;-83
2023/09/04 01:50:46;;;;;;;4.80;3.93;;;;;;;17.28;100.00;155802.41;5009385;28;20441;-83
2023/09/04 01:53:13;;;;;;;4.83;4.40;;;;;;;17.16;100.00;155771.16;4973722;28;20473;-82
2023/09/04 01:55:40;;;;;;;4.03;3.63;;;;;;;17.14;100.00;155765.97;4988712;28;20467;-82
2023/09/04 01:58:06;;;;;;;6.80;4.50;;;;;;;17.10;100.00;155754.25;4989212;28;21124;-82
2023/09/04 02:00:33;;;;;;;4.70;4.23;;;;;;;17.07;100.00;155747.75;4957429;28;20462;-82
2023/09/04 02:03:00;;;;;;;5.13;4.63;;;;;;;17.07;100.00;155746.44;4972258;28;20562;-82
2023/09/04 02:05:26;;;;;;;5.30;4.07;;;;;;;17.07;100.00;155747.75;5013912;28;20487;-82
2023/09/04 02:07:53;;;;;;;4.90;4.17;;;;;;;17.10;100.00;155754.25;4962471;28;20468;-82
2023/09/04 02:10:22;;;;;;;5.00;4.20;;;;;;;17.12;100.00;155760.78;4957996;28;20447;-82
2023/09/04 02:12:49;;;;;;;5.67;4.07;;;;;;;17.15;100.00;155767.28;4954740;28;20450;-83
2023/09/04 02:15:16;;;;;;;5.07;4.57;;;;;;;17.20;100.00;155780.28;4970933;28;20446;-82
2023/09/04 02:17:43;;;;;;;5.20;3.80;;;;;;;17.18;100.00;155775.09;4993371;28;20469;-82
2023/09/04 02:20:11;;;;;;;4.30;3.90;;;;;;;17.14;100.00;155765.97;4974629;28;20454;-82
2023/09/04 02:22:37;;;;;;;5.10;4.17;;;;;;;17.12;100.00;155760.78;4951618;28;20502;-83
2023/09/04 02:25:05;;;;;;;4.60;4.00;;;;;;;17.11;100.00;155756.84;4970864;28;20442;-82
2023/09/04 02:27:33;;;;;;;5.77;4.87;;;;;;;17.08;100.00;155749.06;4953335;28;20466;-83
2023/09/04 02:30:02;;;;;;;5.80;4.20;;;;;;;17.09;100.00;155751.63;4970753;28;20446;-83
2023/09/04 02:32:29;;;;;;;3.90;3.40;;;;;;;17.14;100.00;155764.66;4969601;28;20454;-83
2023/09/04 02:34:55;;;;;;;4.80;3.90;;;;;;;17.18;100.00;155775.09;4989856;28;20437;-82
2023/09/04 02:37:22;;;;;;;4.53;4.00;;;;;;;17.19;100.00;155777.66;4972503;28;20454;-82
2023/09/04 02:39:48;;;;;;;4.27;3.87;;;;;;;17.13;100.00;155762.06;4967771;28;20454;-82
2023/09/04 02:42:15;;;;;;;4.77;4.27;;;;;;;17.03;100.00;155738.63;5003521;28;20469;-82
2023/09/04 02:44:43;;;;;;;7.23;4.20;;;;;;;16.99;100.00;155728.25;4972061;28;20629;-82
2023/09/04 02:47:10;;;;;;;7.30;4.37;;;;;;;16.98;100.00;155725.63;4989774;28;20469;-82
2023/09/04 02:49:37;;;;;;;4.10;3.67;;;;;;;16.95;100.00;155717.81;4955032;28;20469;-83
2023/09/04 02:52:03;;;;;;;4.20;3.80;;;;;;;16.92;100.00;155710.00;4972385;28;20438;-81
2023/09/04 02:54:30;;;;;;;4.97;4.57;;;;;;;16.91;100.00;155707.44;4989872;28;20434;-82
2023/09/04 02:56:57;;;;;;;4.73;4.20;;;;;;;16.94;100.00;155713.94;4989843;28;20857;-76
2023/09/04 02:59:25;;;;;;;4.30;3.90;;;;;;;16.91;100.00;155706.13;4992870;28;20544;-78
2023/09/04 03:01:53;;;;;;;5.17;4.50;;;;;;;16.94;100.00;155715.19;4975160;28;20509;-81
2023/09/04 03:04:20;;;;;;;4.30;3.90;;;;;;;16.98;100.00;155725.63;5008961;28;20551;-81
2023/09/04 03:06:46;;;;;;;3.87;3.47;;;;;;;16.98;100.00;155724.31;4998948;28;20454;-82
2023/09/04 03:09:15;;;;;;;4.53;4.13;;;;;;;16.97;100.00;155723.00;4985686;28;20567;-82
2023/09/04 03:11:41;;;;;;;5.40;4.90;;;;;;;16.95;100.00;155717.81;4991542;28;20460;-82
2023/09/04 03:14:08;;;;;;;5.13;4.50;;;;;;;16.89;100.00;155702.19;4991319;28;20968;-82
2023/09/04 03:16:35;;;;;;;5.10;4.60;;;;;;;16.84;100.00;155689.19;4979700;28;20550;-82
2023/09/04 03:19:03;;;;;;;4.30;3.90;;;;;;;16.77;100.00;155670.97;4971898;28;20438;-81
2023/09/04 03:21:31;;;;;;;5.00;4.50;;;;;;;16.74;100.00;155661.88;4989398;28;20462;-82
2023/09/04 03:23:58;;;;;;;5.90;4.60;;;;;;;16.70;100.00;155652.78;4952133;28;20470;-81
2023/09/04 03:26:24;;;;;;;4.83;4.20;;;;;;;16.70;100.00;155652.78;4969697;28;20867;-81
2023/09/04 03:28:51;;;;;;;7.10;5.80;;;;;;;16.61;100.00;155628.03;4990639;28;20460;-82
2023/09/04 03:31:19;;;;;;;5.53;4.37;;;;;;;16.53;100.00;155608.53;5000450;28;20887;-81
2023/09/04 03:33:47;;;;;;;4.47;4.07;;;;;;;16.45;100.00;155588.97;4971664;28;20426;-81
2023/09/04 03:36:15;;;;;;;5.60;5.10;;;;;;;16.39;100.00;155573.34;4965597;28;20580;-81
2023/09/04 03:38:41;;;;;;;5.27;4.50;;;;;;;16.35;100.00;155562.97;4991221;28;20476;-82
2023/09/04 03:41:09;;;;;;;6.13;5.63;;;;;;;16.32;100.00;155553.84;4979542;28;20464;-82
2023/09/04 03:43:35;;;;;;;5.20;4.70;;;;;;;16.24;100.00;155534.34;4986868;28;20484;-82
2023/09/04 03:46:02;;;;;;;4.67;4.20;;;;;;;16.20;100.00;155523.94;4968239;28;20825;-82
2023/09/04 03:48:28;;;;;;;5.80;4.77;;;;;;;16.24;100.00;155533.06;4964818;28;20897;-82
2023/09/04 03:50:59;;;;;;;5.73;4.80;;;;;;;16.17;100.00;155514.88;4990715;28;20444;-82
2023/09/04 03:53:28;;;;;;;4.63;4.23;;;;;;;16.15;100.00;155509.66;4977826;28;20451;-82
2023/09/04 03:56:02;;;;;;;4.73;4.23;;;;;;;16.26;100.00;155539.56;4992073;28;20446;-81
2023/09/04 03:58:29;;;;;;;5.53;4.50;;;;;;;16.24;100.00;155533.06;4968193;28;20970;-82
2023/09/04 04:00:57;;;;;;;4.83;4.37;;;;;;;16.25;100.00;155535.66;4952213;28;20446;-82
2023/09/04 04:03:24;;;;;;;5.20;4.70;;;;;;;16.21;100.00;155525.25;4976470;28;20522;-82
2023/09/04 04:05:50;;;;;;;4.73;4.30;;;;;;;16.19;100.00;155521.38;4984547;28;20497;-82
2023/09/04 04:08:17;;;;;;;4.97;4.10;;;;;;;16.21;100.00;155525.25;4989547;28;20437;-82
2023/09/04 04:10:45;;;;;;;5.00;4.37;;;;;;;16.16;100.00;155512.25;4968995;28;20452;-82
2023/09/04 04:13:11;;;;;;;5.00;4.40;;;;;;;16.17;100.00;155516.16;4987007;28;20452;-82
2023/09/04 04:15:39;;;;;;;6.47;5.00;;;;;;;16.18;100.00;155517.44;4974261;28;20460;-82
2023/09/04 04:18:08;;;;;;;5.63;5.03;;;;;;;16.14;100.00;155507.06;4990777;28;20457;-82
2023/09/04 04:20:35;;;;;;;4.87;4.30;;;;;;;16.19;100.00;155521.38;4992912;28;20563;-82
2023/09/04 04:23:01;;;;;;;4.83;4.33;;;;;;;16.19;100.00;155520.03;5012408;28;20477;-82
2023/09/04 04:25:28;;;;;;;5.70;4.47;;;;;;;16.16;100.00;155512.25;4994317;28;20441;-82
2023/09/04 04:27:56;;;;;;;4.93;4.47;;;;;;;16.12;100.00;155503.16;4994365;28;20456;-82
2023/09/04 04:30:23;;;;;;;4.57;4.17;;;;;;;16.11;100.00;155499.25;5002040;28;20456;-82
2023/09/04 04:32:50;;;;;;;5.83;5.20;;;;;;;16.12;100.00;155501.88;4992603;28;20817;-82
2023/09/04 04:35:17;;;;;;;8.30;4.20;;;;;;;16.13;100.00;155505.75;4974752;28;20437;-82
2023/09/04 04:37:44;;;;;;;5.57;4.93;;;;;;;16.13;100.00;155505.75;4973692;28;20445;-82
2023/09/04 04:40:12;;;;;;;5.50;4.90;;;;;;;16.10;100.00;155497.94;4975205;28;20450;-82
2023/09/04 04:42:41;;;;;;;4.67;4.27;;;;;;;16.07;100.00;155488.88;4939065;28;20474;-82
2023/09/04 04:45:10;;;;;;;5.20;4.70;;;;;;;16.09;100.00;155494.06;4965222;28;20482;-76
2023/09/04 04:47:38;;;;;;;5.73;5.17;;;;;;;16.09;100.00;155494.06;4958272;28;20589;-78
2023/09/04 04:50:05;;;;;;;5.90;4.97;;;;;;;16.10;100.00;155497.94;4957488;28;20449;-78
2023/09/04 04:52:32;;;;;;;6.17;4.70;;;;;;;16.16;100.00;155512.25;4991879;28;20540;-78
2023/09/04 04:54:59;;;;;;;6.50;5.20;;;;;;;16.20;100.00;155522.66;4971245;28;20792;-78
2023/09/04 04:57:25;;;;;;;6.37;4.60;;;;;;;16.21;100.00;155525.25;4969501;28;20473;-78
2023/09/04 04:59:52;;;;;;;6.20;5.07;;;;;;;16.22;100.00;155527.84;4993708;28;20969;-78
2023/09/04 05:02:21;;;;;;;5.30;4.80;;;;;;;16.23;100.00;155531.75;4961510;28;20496;-78
2023/09/04 05:04:48;;;;;;;6.10;5.50;;;;;;;16.21;100.00;155525.25;4977735;28;20522;-78
2023/09/04 05:07:17;;;;;;;6.67;5.53;;;;;;;16.18;100.00;155518.75;4969533;28;20458;-78
2023/09/04 05:09:43;;;;;;;5.80;5.20;;;;;;;16.18;100.00;155517.44;4960923;28;20449;-78
2023/09/04 05:12:10;;;;;;;5.90;5.13;;;;;;;16.19;100.00;155520.03;4978913;28;20457;-78
2023/09/04 05:14:37;;;;;;;6.67;6.00;;;;;;;16.18;100.00;155518.75;4959924;28;20450;-79
2023/09/04 05:17:05;;;;;;;6.40;5.80;;;;;;;16.21;100.00;155525.25;4944857;28;20462;-78
2023/09/04 05:19:34;;;;;;;6.17;5.27;;;;;;;16.24;100.00;155534.34;4960553;28;20461;-78
2023/09/04 05:22:00;;;;;;;5.83;5.23;;;;;;;16.28;100.00;155543.47;4962340;28;20476;-78
2023/09/04 05:24:27;;;;;;;6.60;5.10;;;;;;;16.34;100.00;155560.34;4961409;28;20466;-78
2023/09/04 05:26:54;;;;;;;6.83;6.00;;;;;;;16.39;100.00;155572.06;4978864;28;20490;-78
2023/09/04 05:29:20;;;;;;;6.33;5.40;;;;;;;16.42;100.00;155581.16;4975483;28;20475;-77
2023/09/04 05:31:50;;;;;;;6.80;5.43;;;;;;;16.47;100.00;155591.59;4974781;28;20861;-78
2023/09/04 05:34:17;;;;;;;7.47;6.07;;;;;;;16.54;100.00;155611.16;4977631;28;20453;-78
2023/09/04 05:36:45;;;;;;;5.73;5.23;;;;;;;16.57;100.00;155617.66;4977370;28;20470;-78
2023/09/04 05:39:11;;;;;;;5.17;4.67;;;;;;;16.60;100.00;155626.72;4944050;28;20452;-78
2023/09/04 05:41:38;;;;;;;8.90;5.77;;;;;;;16.65;100.00;155639.78;4979283;28;20502;-78
2023/09/04 05:44:05;;;;;;;5.80;5.20;;;;;;;16.74;100.00;155661.88;4980059;28;20513;-78
2023/09/04 05:46:32;;;;;;;5.83;5.23;;;;;;;16.82;100.00;155684.00;4976460;28;21025;-78
2023/09/04 05:48:59;;;;;;;6.10;5.50;;;;;;;16.95;100.00;155717.81;4978331;28;20450;-78
2023/09/04 05:51:26;;;;;;;8.17;5.83;;;;;;;17.19;100.00;155778.97;4975913;28;20472;-78
2023/09/04 05:53:54;;;;;;;6.87;6.17;;;;;;;17.43;100.00;155841.44;4977445;28;20811;-78
2023/09/04 05:56:20;;;;;;;6.23;5.33;;;;;;;17.67;99.47;155902.69;4979440;28;20466;-78
2023/09/04 05:58:48;;;;;;;6.53;5.83;;;;;;;17.87;97.03;155954.72;4974251;28;20471;-78
2023/09/04 06:01:15;;;;;;;6.60;5.90;;;;;;;18.09;96.25;156012.03;4972410;28;20831;-78
2023/09/04 06:03:43;;;;;;;6.20;5.47;;;;;;;18.34;94.30;156075.88;4977092;28;20481;-78
2023/09/04 06:06:10;;;;;;;5.77;5.20;;;;;;;18.57;92.98;156135.84;4959582;28;20528;-78
2023/09/04 06:08:37;;;;;;;9.13;5.77;;;;;;;18.81;92.12;156197.06;4978752;28;20449;-78
2023/09/04 06:11:05;;;;;;;6.10;5.40;;;;;;;19.01;90.42;156249.16;4977351;28;20529;-78
2023/09/04 06:13:32;;;;;;;5.20;4.70;;;;;;;19.14;89.49;156281.78;4978409;28;20501;-77
2023/09/04 06:16:00;;;;;;;5.10;4.60;;;;;;;19.27;88.37;156315.66;4979623;28;20458;-78
2023/09/04 06:18:28;;;;;;;5.90;5.40;;;;;;;19.44;87.23;156361.31;4976582;28;20869;-77
2023/09/04 06:20:54;;;;;;;5.80;5.27;;;;;;;19.59;85.43;156397.81;4978274;28;20442;-77
2023/09/04 06:23:21;;;;;;;5.67;5.10;;;;;;;19.70;84.75;156426.47;4976737;28;20493;-77
2023/09/04 06:25:48;;;;;;;7.70;5.67;;;;;;;19.74;83.79;156438.22;4976527;28;20462;-77
2023/09/04 06:28:16;;;;;;;5.77;5.27;;;;;;;19.81;83.74;156456.47;4977353;28;20450;-77
2023/09/04 06:30:44;;;;;;;5.53;5.03;;;;;;;19.93;81.78;156486.47;4959452;28;20453;-77
2023/09/04 06:33:11;;;;;;;5.77;5.17;;;;;;;20.03;83.10;156512.53;4975303;28;20524;-77
2023/09/04 06:35:38;;;;;;;5.30;4.90;;;;;;;20.21;81.31;156559.50;4979542;28;20466;-77
2023/09/04 06:38:05;;;;;;;6.10;5.50;;;;;;;20.30;80.15;156583.03;4960717;28;20553;-77
2023/09/04 06:40:32;;;;;;;6.07;5.10;;;;;;;20.26;80.53;156571.25;4959846;28;20456;-77
2023/09/04 06:42:58;;;;;;;5.80;5.30;;;;;;;20.42;80.84;156614.31;4978138;28;20482;-77
2023/09/04 06:45:26;;;;;;;5.70;5.20;;;;;;;20.59;80.75;156658.69;4979311;28;20881;-77
2023/09/04 06:47:53;;;;;;;5.27;4.77;;;;;;;20.75;78.96;156699.13;4979862;28;20458;-77
2023/09/04 06:50:19;;;;;;;5.57;5.03;;;;;;;20.84;76.68;156722.59;4978695;28;20450;-77
2023/09/04 06:52:46;;;;;;;5.60;5.10;;;;;;;20.98;76.23;156757.81;4975803;28;21094;-75
2023/09/04 06:55:12;;;;;;;6.00;5.40;;;;;;;21.03;76.03;156772.19;4978610;28;20445;-75
2023/09/04 06:57:39;;;;;;;5.70;4.83;;;;;;;21.20;74.99;156815.31;4979193;28;20458;-82
2023/09/04 07:00:11;;;;;;;8.03;4.70;;;;;;;21.40;74.72;156867.50;4978074;28;20450;-84
2023/09/04 07:02:39;;;;;;;6.97;5.00;;;;;;;21.52;74.07;156898.84;4972432;28;20479;-84
2023/09/04 07:05:08;;;;;;;5.53;5.00;;;;;;;21.61;72.73;156922.31;4975623;28;20584;-85
2023/09/04 07:07:35;;;;;;;5.50;4.57;;;;;;;21.77;72.35;156964.09;4974329;28;20451;-85
2023/09/04 07:10:03;;;;;;;5.23;4.73;;;;;;;21.94;71.04;157005.94;4974535;28;20461;-85
2023/09/04 07:12:31;;;;;;;5.20;4.70;;;;;;;21.81;71.74;156974.56;4961896;28;20493;-84
2023/09/04 07:14:57;;;;;;;4.93;4.43;;;;;;;21.97;70.86;157015.09;4943181;28;20991;-84
2023/09/04 07:17:24;;;;;;;5.70;5.10;;;;;;;21.97;70.34;157015.09;4978039;28;20548;-85
2023/09/04 07:19:52;;;;;;;5.87;4.93;;;;;;;21.99;70.05;157019.00;4974528;28;20461;-85
2023/09/04 07:22:19;;;;;;;4.80;4.37;;;;;;;22.11;70.59;157050.31;4962516;28;20785;-85
2023/09/04 07:24:45;;;;;;;6.60;4.70;;;;;;;22.32;69.86;157106.47;4964301;28;20477;-85
2023/09/04 07:27:12;;;;;;;5.97;5.40;;;;;;;22.43;67.66;157135.22;4982078;28;20465;-84
2023/09/04 07:29:38;;;;;;;4.90;4.43;;;;;;;22.44;67.94;157136.53;4975127;28;20560;-84
2023/09/04 07:32:05;;;;;;;5.70;5.20;;;;;;;22.51;67.78;157154.81;4979181;28;21340;-84
2023/09/04 07:34:32;;;;;;;5.13;4.63;;;;;;;22.63;68.59;157186.25;4977000;28;20445;-84
2023/09/04 07:37:05;;;;;;;5.33;4.83;;;;;;;22.77;67.73;157221.53;4982187;28;20476;-84
2023/09/04 07:39:32;;;;;;;5.90;5.07;;;;;;;22.89;66.34;157252.84;4980054;28;20549;-84
2023/09/04 07:41:58;;;;;;;5.33;4.80;;;;;;;23.06;65.38;157296.00;4945037;28;20541;-84
2023/09/04 07:44:25;;;;;;;5.97;5.27;;;;;;;23.10;65.45;157306.41;4960542;28;20466;-85
2023/09/04 07:46:52;;;;;;;5.20;4.60;;;;;;;23.29;65.72;157356.09;4979774;28;20464;-85
2023/09/04 07:49:18;;;;;;;5.30;4.80;;;;;;;23.25;64.72;157346.94;4960761;28;20457;-85
2023/09/04 07:51:45;;;;;;;6.43;5.50;;;;;;;23.23;63.71;157341.72;4978631;28;20522;-85
2023/09/04 07:54:13;;;;;;;5.20;4.70;;;;;;;23.45;64.73;157399.28;4983221;28;20449;-85
2023/09/04 07:56:39;;;;;;;4.97;4.57;;;;;;;23.55;64.16;157424.09;4980376;28;20457;-85
2023/09/04 07:59:06;;;;;;;5.30;4.80;;;;;;;23.71;63.83;157465.94;4982678;28;21024;-85
2023/09/04 08:01:33;;;;;;;5.13;4.73;;;;;;;23.92;62.90;157519.53;4980466;28;20461;-85
2023/09/04 08:04:01;;;;;;;5.07;4.67;;;;;;;23.89;62.99;157513.00;4961687;28;20509;-84
2023/09/04 08:06:28;;;;;;;5.17;4.67;;;;;;;23.74;63.95;157473.78;4963941;28;20508;-84
2023/09/04 08:08:54;;;;;;;4.90;4.50;;;;;;;23.73;63.15;157471.16;4983474;28;20453;-85
2023/09/04 08:11:22;;;;;;;6.37;4.77;;;;;;;23.78;63.99;157482.91;4980965;28;20465;-84
2023/09/04 08:13:49;;;;;;;5.30;4.50;;;;;;;23.90;63.32;157515.63;4982727;28;20446;-85
2023/09/04 08:16:15;;;;;;;5.80;5.20;;;;;;;23.61;62.08;157439.81;4964401;28;20531;-84
2023/09/04 08:18:42;;;;;;;4.90;4.40;;;;;;;23.28;63.71;157353.47;4982153;28;20665;-84
2023/09/04 08:21:08;;;;;;;5.40;4.60;;;;;;;23.16;65.30;157322.13;4979227;28;20457;-84
2023/09/04 08:23:35;;;;;;;5.03;4.57;;;;;;;23.37;64.50;157377.06;4982182;28;20992;-84
2023/09/04 08:26:03;;;;;;;5.73;5.23;;;;;;;23.45;64.95;157397.97;4979336;28;20446;-84
2023/09/04 08:28:31;;;;;;;5.57;5.07;;;;;;;23.84;66.12;157499.94;4963328;28;20837;-84
2023/09/04 08:30:58;;;;;;;5.50;5.03;;;;;;;24.12;63.17;157573.19;4970874;28;20454;-84
2023/09/04 08:33:25;;;;;;;4.90;4.50;;;;;;;24.20;62.77;157592.78;4967348;28;20493;-84
2023/09/04 08:35:51;;;;;;;4.90;4.50;;;;;;;24.02;60.42;157547.00;4980507;28;20516;-84
2023/09/04 08:38:18;;;;;;;5.20;4.70;;;;;;;23.76;62.20;157479.00;4981373;28;20554;-84
2023/09/04 08:40:45;;;;;;;5.53;5.07;;;;;;;23.58;63.88;157433.28;4981489;28;20460;-84
2023/09/04 08:43:11;;;;;;;5.20;4.70;;;;;;;23.82;64.04;157493.41;4980617;28;20979;-84
2023/09/04 08:45:40;;;;;;;4.90;4.50;;;;;;;23.87;62.28;157507.78;4963244;28;20449;-84
2023/09/04 08:48:08;;;;;;;6.90;5.07;;;;;;;23.85;61.17;157502.56;4975490;28;20461;-84
2023/09/04 08:50:36;;;;;;;5.20;4.70;;;;;;;23.62;63.26;157443.69;4977023;28;20969;-84
2023/09/04 08:53:03;;;;;;;5.20;4.80;;;;;;;23.70;63.00;157462.00;4982322;28;20458;-84
2023/09/04 08:55:29;;;;;;;5.27;4.87;;;;;;;23.66;62.11;157452.88;4978143;28;20458;-83
2023/09/04 08:57:56;;;;;;;4.60;4.20;;;;;;;23.47;62.28;157404.50;4965181;28;20464;-83
2023/09/04 09:00:23;;;;;;;5.00;4.60;;;;;;;23.37;62.35;157378.38;4964944;28;20874;-83
2023/09/04 09:02:51;;;;;;;6.10;5.50;;;;;;;23.41;62.45;157387.50;4962113;28;20471;-83
2023/09/04 09:05:18;;;;;;;5.50;5.10;;;;;;;23.25;62.87;157345.63;4979453;28;20487;-83
2023/09/04 09:07:46;;;;;;;5.27;4.77;;;;;;;23.25;63.86;157345.63;4963095;28;20458;-83
2023/09/04 09:10:18;;;;;;;5.70;4.73;;;;;;;23.25;63.95;157346.94;4963393;28;20488;-83
2023/09/04 09:12:45;;;;;;;5.30;4.80;;;;;;;23.33;64.68;157366.53;4962584;28;20553;-83
2023/09/04 09:15:11;;;;;;;5.50;5.00;;;;;;;23.23;64.02;157340.41;4962209;28;20449;-83
2023/09/04 09:17:53;;;;;;;6.10;5.07;;;;;;;23.33;64.74;157367.84;4981412;28;20458;-83
2023/09/04 09:20:30;;;;;;;4.87;4.47;;;;;;;23.40;64.01;157386.22;4977927;28;20955;-83
2023/09/04 09:22:57;;;;;;;6.00;5.43;;;;;;;23.34;64.48;157370.47;4962049;28;20496;-83
2023/09/04 09:25:23;;;;;;;5.70;5.13;;;;;;;23.42;64.96;157390.13;4962655;28;20533;-82
2023/09/04 09:27:50;;;;;;;7.00;5.43;;;;;;;23.40;63.73;157384.91;4980137;28;20470;-82
2023/09/04 09:30:17;;;;;;;5.80;5.07;;;;;;;23.33;64.70;157366.53;4974837;28;20817;-84
2023/09/04 09:32:44;;;;;;;5.40;5.00;;;;;;;23.30;64.24;157358.72;4961452;28;20461;-83
2023/09/04 09:35:12;;;;;;;5.83;5.27;;;;;;;23.23;63.85;157341.72;4979397;28;20454;-83
2023/09/04 09:37:38;;;;;;;5.00;4.60;;;;;;;23.37;65.74;157377.06;4962604;28;20458;-83
2023/09/04 09:40:08;;;;;;;5.30;4.80;;;;;;;23.43;63.43;157394.03;4963107;28;20492;-83
2023/09/04 09:42:35;;;;;;;5.20;4.70;;;;;;;23.48;63.67;157405.81;4981578;28;20493;-83
2023/09/04 09:45:06;;;;;;;5.40;4.90;;;;;;;23.41;62.04;157388.81;4979306;28;20470;-83
2023/09/04 09:47:33;;;;;;;4.97;4.47;;;;;;;23.46;62.39;157401.88;4982208;28;20470;-84
2023/09/04 09:50:00;;;;;;;5.47;4.97;;;;;;;23.47;63.06;157403.19;4982688;28;20460;-83
2023/09/04 09:52:28;;;;;;;5.60;5.10;;;;;;;23.38;62.71;157379.63;4979247;28;20574;-83
2023/09/04 09:54:55;;;;;;;4.63;4.23;;;;;;;23.43;63.81;157392.75;4980930;28;20461;-83
2023/09/04 09:57:22;;;;;;;5.00;4.37;;;;;;;23.40;63.54;157386.22;4978000;28;20982;-84
2023/09/04 09:59:50;;;;;;;5.70;5.20;;;;;;;23.40;63.00;157384.91;4978003;28;20986;-84
2023/09/04 10:02:20;;;;;;;5.07;4.57;;;;;;;23.42;63.46;157390.13;4980897;28;20699;-84
2023/09/04 10:04:47;;;;;;;5.23;4.60;;;;;;;23.49;62.96;157408.41;4980527;28;20487;-83
2023/09/04 10:07:17;;;;;;;5.40;4.90;;;;;;;23.48;62.63;157407.09;4964471;28;20466;-84
2023/09/04 10:09:46;;;;;;;5.53;4.53;;;;;;;23.45;61.04;157397.97;4968998;28;21041;-82
2023/09/04 10:12:17;;;;;;;5.20;4.80;;;;;;;23.52;61.58;157416.25;4966709;28;20492;-82
2023/09/04 10:14:44;;;;;;;4.90;4.50;;;;;;;23.48;58.57;157407.09;4980446;28;20446;-82
2023/09/04 10:17:17;;;;;;;4.03;3.70;;;;;;;23.49;59.87;157408.41;4959969;28;20824;-82
2023/09/04 10:19:45;;;;;;;4.53;4.10;;;;;;;23.56;59.98;157426.75;4978254;28;20458;-82
2023/09/04 10:22:17;;;;;;;4.70;4.30;;;;;;;23.60;57.29;157437.16;4961372;28;20499;-81
2023/09/04 10:24:50;;;;;;;4.00;3.70;;;;;;;23.61;57.88;157441.13;4978959;28;20473;-82
2023/09/04 10:27:18;;;;;;;4.57;4.17;;;;;;;23.68;58.95;157458.09;4978419;28;20836;-84
2023/09/04 10:29:47;;;;;;;6.10;4.20;;;;;;;23.71;57.16;157465.94;4979296;28;20544;-83
2023/09/04 10:32:14;;;;;;;5.40;4.10;;;;;;;23.71;57.33;157464.63;4977615;28;20465;-83
2023/09/04 10:34:41;;;;;;;5.30;4.80;;;;;;;23.65;58.01;157450.25;4978501;28;20475;-86
2023/09/04 10:37:10;;;;;;;4.80;4.40;;;;;;;23.65;58.52;157450.25;4977422;28;20833;-84
2023/09/04 10:39:38;;;;;;;8.47;4.10;;;;;;;23.75;58.04;157476.38;4979873;28;20449;-84
2023/09/04 10:42:07;;;;;;;5.00;4.50;;;;;;;23.83;58.78;157496.03;4978454;28;20475;-87
2023/09/04 10:44:46;;;;;;;5.30;4.83;;;;;;;23.94;58.49;157526.06;4983660;28;20486;-89
2023/09/04 10:47:13;;;;;;;4.87;4.37;;;;;;;24.04;57.90;157552.22;4969961;28;20707;-93
2023/09/04 10:49:41;;;;;;;6.27;4.50;;;;;;;24.03;56.60;157549.63;4976248;28;20506;-84
2023/09/04 10:52:08;;;;;;;4.50;4.10;;;;;;;24.01;55.23;157544.34;4979151;28;20520;-84
2023/09/04 10:54:35;;;;;;;4.10;3.80;;;;;;;24.06;54.11;157557.47;4978285;28;20457;-84
2023/09/04 10:57:05;;;;;;;4.07;3.67;;;;;;;24.01;53.45;157543.09;4978922;28;20457;-84
2023/09/04 11:00:02;;;;;;;4.53;4.13;;;;;;;24.04;53.99;157552.22;4959755;28;20980;-84
2023/09/04 11:02:31;;;;;;;4.70;4.30;;;;;;;24.05;54.12;157554.84;4962055;28;20472;-84
2023/09/04 11:04:58;;;;;;;5.03;4.53;;;;;;;24.19;54.10;157591.53;4966718;28;20843;-85
2023/09/04 11:07:26;;;;;;;4.60;4.20;;;;;;;24.19;55.14;157591.53;4959323;28;20454;-85
2023/09/04 11:09:54;;;;;;;4.50;4.10;;;;;;;24.20;53.25;157594.09;4959714;28;20975;-84
2023/09/04 11:12:21;;;;;;;4.70;4.30;;;;;;;24.25;51.16;157604.59;4957277;28;20467;-84
2023/09/04 11:14:51;;;;;;;4.10;3.70;;;;;;;24.23;51.92;157600.66;4958406;28;20454;-84
2023/09/04 11:17:17;;;;;;;4.10;3.60;;;;;;;24.23;51.60;157601.97;4959684;28;20461;-84
2023/09/04 11:19:45;;;;;;;3.77;3.43;;;;;;;24.34;51.57;157628.13;4960102;28;20451;-84
2023/09/04 11:22:16;;;;;;;4.10;3.70;;;;;;;24.23;49.15;157600.66;4958363;28;20469;-84
2023/09/04 11:24:42;;;;;;;4.27;3.70;;;;;;;24.32;49.99;157622.88;4973177;28;21038;-84